createdAt,value
2022-11-12T00:02:22.355Z,1.80
2022-11-12T00:05:12.846Z,2.70
2022-11-12T00:08:06.581Z,2.87
2022-11-12T00:10:59.957Z,1.60
2022-11-12T00:13:48.347Z,1.87
2022-11-12T00:16:39.242Z,3.43
2022-11-12T00:19:27.958Z,2.30
2022-11-12T00:22:16.789Z,2.03
2022-11-12T00:25:09.022Z,1.90
2022-11-12T00:28:04.161Z,1.50
2022-11-12T00:30:55.851Z,1.40
2022-11-12T00:33:46.329Z,1.50
2022-11-12T00:36:35.040Z,1.60
2022-11-12T00:39:23.563Z,1.00
2022-11-12T00:42:14.810Z,0.90
2022-11-12T00:45:03.127Z,1.20
2022-11-12T00:47:52.636Z,1.30
2022-11-12T00:50:40.988Z,1.40
2022-11-12T00:53:30.266Z,1.30
2022-11-12T00:56:23.666Z,1.80
2022-11-12T00:59:16.200Z,1.00
2022-11-12T01:02:05.388Z,1.70
2022-11-12T01:04:54.022Z,1.43
2022-11-12T01:07:43.325Z,1.40
2022-11-12T01:10:31.727Z,1.00
2022-11-12T01:13:21.373Z,1.30
2022-11-12T01:16:17.461Z,1.67
2022-11-12T01:19:08.620Z,1.50
2022-11-12T01:22:01.588Z,1.00
2022-11-12T01:24:49.773Z,1.20
2022-11-12T01:27:38.921Z,1.50
2022-11-12T01:30:30.223Z,1.60
2022-11-12T01:33:22.553Z,2.13
2022-11-12T01:36:15.928Z,1.57
2022-11-12T01:39:06.313Z,1.00
2022-11-12T01:41:56.989Z,1.80
2022-11-12T01:44:48.617Z,1.47
2022-11-12T01:47:38.846Z,1.50
2022-11-12T01:50:35.985Z,2.63
2022-11-12T01:53:28.654Z,0.97
2022-11-12T01:56:19.184Z,1.60
2022-11-12T01:59:14.878Z,1.40
2022-11-12T02:02:04.337Z,1.40
2022-11-12T02:04:54.969Z,1.10
2022-11-12T02:07:48.012Z,1.70
2022-11-12T02:10:42.285Z,1.40
2022-11-12T02:13:44.611Z,1.77
2022-11-12T02:16:36.345Z,1.40
2022-11-12T02:25:55.922Z,1.00
2022-11-12T02:28:44.429Z,1.40
2022-11-12T02:31:33.431Z,1.00
2022-11-12T02:34:22.507Z,1.00
2022-11-12T02:37:11.461Z,1.03
2022-11-12T02:39:59.810Z,1.40
2022-11-12T02:42:51.571Z,1.17
2022-11-12T02:45:40.318Z,1.00
2022-11-12T02:48:31.606Z,1.00
2022-11-12T02:51:20.747Z,1.50
2022-11-12T02:54:12.322Z,1.00
2022-11-12T02:57:00.868Z,1.20
2022-11-12T02:59:52.200Z,1.00
2022-11-12T03:02:42.837Z,0.87
2022-11-12T03:05:33.807Z,1.20
2022-11-12T03:08:22.073Z,1.33
2022-11-12T03:11:12.095Z,0.90
2022-11-12T03:14:01.958Z,1.00
2022-11-12T03:16:53.716Z,1.37
2022-11-12T03:19:42.257Z,1.07
2022-11-12T03:22:31.689Z,1.30
2022-11-12T03:25:20.055Z,1.03
2022-11-12T03:28:12.094Z,0.87
2022-11-12T03:31:01.848Z,1.20
2022-11-12T03:33:53.647Z,1.50
2022-11-12T03:36:42.275Z,1.90
2022-11-12T03:39:30.534Z,1.27
2022-11-12T03:42:19.233Z,1.23
2022-11-12T03:45:10.064Z,1.60
2022-11-12T03:48:00.952Z,1.33
2022-11-12T03:50:51.861Z,1.60
2022-11-12T03:53:42.815Z,1.30
2022-11-12T03:56:32.019Z,1.00
2022-11-12T03:59:20.452Z,1.40
2022-11-12T04:02:14.725Z,1.27
2022-11-12T04:05:15.707Z,1.10
2022-11-12T04:08:21.384Z,1.00
2022-11-12T04:11:12.988Z,1.93
2022-11-12T04:14:02.766Z,1.60
2022-11-12T04:17:04.494Z,1.27
2022-11-12T04:20:05.269Z,1.13
2022-11-12T04:22:55.000Z,1.20
2022-11-12T04:25:59.471Z,1.40
2022-11-12T04:29:00.757Z,1.43
2022-11-12T04:31:50.240Z,1.33
2022-11-12T04:34:38.875Z,1.30
2022-11-12T04:37:29.604Z,1.13
2022-11-12T04:40:32.802Z,1.47
2022-11-12T04:43:36.771Z,1.43
2022-11-12T04:46:25.358Z,2.10
2022-11-12T04:49:14.499Z,1.80
2022-11-12T04:52:08.742Z,1.40
2022-11-12T04:54:57.428Z,1.40
2022-11-12T04:57:46.907Z,1.43
2022-11-12T05:00:38.694Z,1.70
2022-11-12T05:03:27.919Z,1.43
2022-11-12T05:06:28.466Z,1.43
2022-11-12T05:09:20.758Z,1.43
2022-11-12T05:12:09.860Z,1.80
2022-11-12T05:14:58.454Z,1.47
2022-11-12T05:17:50.918Z,1.13
2022-11-12T05:20:39.279Z,1.77
2022-11-12T05:23:28.115Z,2.00
2022-11-12T05:26:16.470Z,2.20
2022-11-12T05:29:08.704Z,1.63
2022-11-12T05:31:57.845Z,1.63
2022-11-12T05:34:48.590Z,1.40
2022-11-12T05:37:37.856Z,1.30
2022-11-12T05:40:26.161Z,1.83
2022-11-12T05:43:15.112Z,1.47
2022-11-12T05:46:04.138Z,1.47
2022-11-12T05:48:53.411Z,1.70
2022-11-12T05:51:44.749Z,1.53
2022-11-12T05:54:32.885Z,1.40
2022-11-12T05:57:21.991Z,1.67
2022-11-12T06:00:12.207Z,1.70
2022-11-12T06:03:01.914Z,1.10
2022-11-12T06:05:50.120Z,1.40
2022-11-12T06:08:41.471Z,1.57
2022-11-12T06:11:30.031Z,1.47
2022-11-12T06:14:19.668Z,1.00
2022-11-12T06:17:09.986Z,1.17
2022-11-12T06:19:58.707Z,1.20
2022-11-12T06:22:48.088Z,1.20
2022-11-12T06:25:38.802Z,1.60
2022-11-12T06:28:28.982Z,1.50
2022-11-12T06:31:18.041Z,1.13
2022-11-12T06:34:07.456Z,1.30
2022-11-12T06:36:56.188Z,4.93
2022-11-12T06:39:44.565Z,6.20
2022-11-12T06:42:36.607Z,3.20
2022-11-12T06:45:26.002Z,1.80
2022-11-12T06:48:15.789Z,2.37
2022-11-12T06:51:10.845Z,2.40
2022-11-12T06:54:00.267Z,2.60
2022-11-12T06:56:48.817Z,1.60
2022-11-12T06:59:40.295Z,1.50
2022-11-12T07:02:29.553Z,2.10
2022-11-12T07:05:18.330Z,2.63
2022-11-12T07:08:10.109Z,2.17
2022-11-12T07:10:59.713Z,2.03
2022-11-12T07:13:49.865Z,2.27
2022-11-12T07:16:40.786Z,2.40
2022-11-12T07:19:31.117Z,2.47
2022-11-12T07:22:19.832Z,2.60
2022-11-12T07:25:09.127Z,5.50
2022-11-12T07:27:39.357Z,2.93
2022-11-12T07:30:27.689Z,1.97
2022-11-12T07:33:19.585Z,2.07
2022-11-12T07:36:10.311Z,2.50
2022-11-12T07:38:59.502Z,2.30
2022-11-12T07:41:48.486Z,2.57
2022-11-12T07:44:37.148Z,1.60
2022-11-12T07:47:26.710Z,1.37
2022-11-12T07:50:18.197Z,1.77
2022-11-12T07:53:07.879Z,1.50
2022-11-12T07:55:57.522Z,1.27
2022-11-12T07:58:47.258Z,1.23
2022-11-12T08:01:37.687Z,1.10
2022-11-12T08:04:26.787Z,1.10
2022-11-12T08:07:19.064Z,1.50
2022-11-12T08:10:09.353Z,1.77
2022-11-12T08:12:59.609Z,1.53
2022-11-12T08:15:52.222Z,3.30
2022-11-12T08:18:41.804Z,2.10
2022-11-12T08:21:30.933Z,1.70
2022-11-12T08:24:24.956Z,3.40
2022-11-12T08:27:14.590Z,4.00
2022-11-12T08:30:03.581Z,4.50
2022-11-12T08:32:59.192Z,1.73
2022-11-12T08:35:48.221Z,1.10
2022-11-12T08:38:37.093Z,4.90
2022-11-12T08:41:29.224Z,12.43
2022-11-12T08:44:18.344Z,7.03
2022-11-12T08:47:08.300Z,5.67
2022-11-12T08:49:57.570Z,2.80
2022-11-12T08:52:46.958Z,1.60
2022-11-12T08:55:37.070Z,6.40
2022-11-12T08:58:30.550Z,2.33
2022-11-12T09:01:21.441Z,6.00
2022-11-12T09:04:11.157Z,12.20
2022-11-12T09:07:00.848Z,6.70
2022-11-12T09:09:49.748Z,7.80
2022-11-12T09:19:37.500Z,2.13
2022-11-12T09:23:07.716Z,2.00
2022-11-12T09:42:52.573Z,0.73
2022-11-12T09:46:26.614Z,0.80
2022-11-12T09:50:01.099Z,0.60
2022-11-12T09:52:56.656Z,0.50
2022-11-12T09:55:49.686Z,0.70
2022-11-12T09:58:42.299Z,0.80
2022-11-12T10:01:44.456Z,0.60
2022-11-12T10:04:56.144Z,0.70
2022-11-12T10:07:58.549Z,0.60
2022-11-12T10:10:52.273Z,0.83
2022-11-12T10:13:55.502Z,0.60
2022-11-12T10:16:59.051Z,0.80
2022-11-12T10:20:02.883Z,0.60
2022-11-12T10:23:10.373Z,0.63
2022-11-12T10:26:05.052Z,0.63
2022-11-12T10:29:09.905Z,0.90
2022-11-12T10:31:59.328Z,0.70
2022-11-12T10:34:51.196Z,0.80
2022-11-12T10:37:50.706Z,0.70
2022-11-12T10:40:44.568Z,0.60
2022-11-12T10:43:35.492Z,0.77
2022-11-12T10:46:30.489Z,1.00
2022-11-12T10:49:27.579Z,0.67
2022-11-12T10:52:27.704Z,0.50
2022-11-12T10:55:22.603Z,0.77
2022-11-12T10:58:23.299Z,0.40
2022-11-12T11:01:19.953Z,0.40
2022-11-12T11:04:29.323Z,0.50
2022-11-12T11:07:26.658Z,0.97
2022-11-12T11:10:29.405Z,1.00
2022-11-12T11:13:30.434Z,0.70
2022-11-12T11:16:21.471Z,0.90
2022-11-12T11:19:16.620Z,0.87
2022-11-12T11:22:26.676Z,0.60
2022-11-12T11:25:30.739Z,0.63
2022-11-12T11:28:26.829Z,0.70
2022-11-12T11:31:27.876Z,0.70
2022-11-12T11:34:32.623Z,0.63
2022-11-12T11:37:30.593Z,0.90
2022-11-12T11:40:30.340Z,0.63
2022-11-12T11:43:44.401Z,0.70
2022-11-12T11:46:48.505Z,0.60
2022-11-12T11:50:14.935Z,0.70
2022-11-12T11:53:25.003Z,0.70
2022-11-12T11:56:25.650Z,0.50
2022-11-12T11:59:26.762Z,1.00
2022-11-12T12:02:37.309Z,0.90
2022-11-12T12:05:40.423Z,0.70
2022-11-12T12:08:39.928Z,0.60
2022-11-12T12:11:38.669Z,0.83
2022-11-12T12:14:46.871Z,0.63
2022-11-12T12:17:50.629Z,0.63
2022-11-12T12:20:50.439Z,0.70
2022-11-12T12:23:49.948Z,0.60
2022-11-12T12:26:47.734Z,0.57
2022-11-12T12:29:44.613Z,0.60
2022-11-12T12:32:41.973Z,0.60
2022-11-12T12:35:38.182Z,0.80
2022-11-12T12:38:43.535Z,0.80
2022-11-12T12:41:42.853Z,0.80
2022-11-12T12:44:52.831Z,0.50
2022-11-12T12:47:47.894Z,0.60
2022-11-12T12:50:40.418Z,0.70
2022-11-12T12:53:42.106Z,0.70
2022-11-12T12:56:48.891Z,0.93
2022-11-12T12:59:39.678Z,0.70
2022-11-12T13:02:30.045Z,0.77
2022-11-12T13:05:35.930Z,0.70
2022-11-12T13:08:30.259Z,1.00
2022-11-12T13:12:02.392Z,0.63
2022-11-12T13:15:18.586Z,0.73
2022-11-12T13:18:17.318Z,0.80
2022-11-12T13:21:16.297Z,0.70
2022-11-12T13:24:12.042Z,0.60
2022-11-12T13:27:02.217Z,0.90
2022-11-12T13:29:52.745Z,0.90
2022-11-12T13:32:47.815Z,0.80
2022-11-12T13:35:38.659Z,0.80
2022-11-12T13:38:30.181Z,1.27
2022-11-12T13:41:42.956Z,0.90
2022-11-12T13:44:35.403Z,0.90
2022-11-12T13:47:32.215Z,1.17
2022-11-12T13:50:27.506Z,0.93
2022-11-12T13:53:24.479Z,1.07
2022-11-12T13:56:15.317Z,1.30
2022-11-12T13:59:17.908Z,1.07
2022-11-12T14:02:17.156Z,1.00
2022-11-12T14:05:16.867Z,0.90
2022-11-12T14:08:26.382Z,0.80
2022-11-12T14:11:56.943Z,0.87
2022-11-12T14:15:03.712Z,1.03
2022-11-12T14:18:02.947Z,1.43
2022-11-12T14:20:57.128Z,1.00
2022-11-12T14:23:53.122Z,0.90
2022-11-12T14:26:47.009Z,1.07
2022-11-12T14:29:53.338Z,0.80
2022-11-12T14:33:42.445Z,0.93
2022-11-12T14:37:05.807Z,1.00
2022-11-12T14:39:59.775Z,0.90
2022-11-12T14:42:51.858Z,1.00
2022-11-12T14:45:51.710Z,1.30
2022-11-12T14:48:52.262Z,1.13
2022-11-12T14:51:53.686Z,1.57
2022-11-12T14:58:36.072Z,1.10
2022-11-12T15:02:57.857Z,1.00
2022-11-12T15:10:37.565Z,1.20
2022-11-12T15:14:17.318Z,0.73
2022-11-12T15:18:02.905Z,1.10
2022-11-12T15:25:55.161Z,0.60
2022-11-12T15:29:39.554Z,1.10
2022-11-12T15:33:13.927Z,0.67
2022-11-12T15:36:51.972Z,0.60
2022-11-12T15:40:22.186Z,0.70
2022-11-12T15:43:30.412Z,0.87
2022-11-12T15:46:49.008Z,1.17
2022-11-12T15:49:41.551Z,0.80
2022-11-12T15:52:32.820Z,1.00
2022-11-12T15:55:25.940Z,0.80
2022-11-12T15:58:19.807Z,1.00
2022-11-12T16:01:09.489Z,0.77
2022-11-12T16:04:00.989Z,2.77
2022-11-12T16:06:50.000Z,3.43
2022-11-12T16:09:42.258Z,3.53
2022-11-12T16:12:31.043Z,1.70
2022-11-12T16:15:23.364Z,1.27
2022-11-12T16:18:15.822Z,0.70
2022-11-12T16:21:08.336Z,1.10
2022-11-12T16:23:57.599Z,1.70
2022-11-12T16:26:46.581Z,6.17
2022-11-12T16:29:35.950Z,7.07
2022-11-12T16:32:25.024Z,4.03
2022-11-12T16:35:18.415Z,7.90
2022-11-12T16:38:16.590Z,66.10
2022-11-12T16:41:04.894Z,35.10
2022-11-12T16:43:54.891Z,44.77
2022-11-12T16:46:44.209Z,21.63
2022-11-12T16:49:38.258Z,29.57
2022-11-12T16:52:28.244Z,25.40
2022-11-12T16:55:20.600Z,32.00
2022-11-12T16:58:09.751Z,17.20
2022-11-12T17:00:58.654Z,33.10
2022-11-12T17:03:47.974Z,49.30
2022-11-12T17:06:38.301Z,55.73
2022-11-12T17:09:27.768Z,69.27
2022-11-12T17:12:19.241Z,65.20
2022-11-12T17:15:10.286Z,53.77
2022-11-12T17:17:59.002Z,41.57
2022-11-12T17:20:51.217Z,86.17
2022-11-12T17:23:40.315Z,21.33
2022-11-12T17:26:28.546Z,10.30
2022-11-12T17:29:21.483Z,16.13
2022-11-12T17:32:10.292Z,12.40
2022-11-12T17:41:50.070Z,19.10
2022-11-12T17:44:42.072Z,43.13
2022-11-12T17:47:35.564Z,123.50
2022-11-12T17:50:27.193Z,9.03
2022-11-12T17:53:17.775Z,2.60
2022-11-12T17:56:07.305Z,2.43
2022-11-12T17:58:56.822Z,3.00
2022-11-12T18:01:48.280Z,6.87
2022-11-12T18:04:37.941Z,4.23
2022-11-12T18:07:26.706Z,34.23
2022-11-12T18:10:19.369Z,3.50
2022-11-12T18:13:12.228Z,3.50
2022-11-12T18:16:01.435Z,35.20
2022-11-12T18:18:53.523Z,6.93
2022-11-12T18:21:42.805Z,3.63
2022-11-12T18:24:31.989Z,3.20
2022-11-12T18:27:20.841Z,6.33
2022-11-12T18:30:14.977Z,10.17
2022-11-12T18:33:09.101Z,15.93
2022-11-12T18:36:09.051Z,5.10
2022-11-12T18:38:58.816Z,2.10
2022-11-12T18:41:47.387Z,2.30
2022-11-12T18:44:36.958Z,1.90
2022-11-12T18:47:25.596Z,2.87
2022-11-12T18:50:14.668Z,2.73
2022-11-12T18:53:06.395Z,3.30
2022-11-12T18:55:55.890Z,2.00
2022-11-12T18:58:44.924Z,1.40
2022-11-12T19:01:33.545Z,1.33
2022-11-12T19:04:23.214Z,1.00
2022-11-12T19:07:11.760Z,1.87
2022-11-12T19:10:14.758Z,2.47
2022-11-12T19:13:05.109Z,3.50
2022-11-12T19:15:54.101Z,2.07
2022-11-12T19:18:44.785Z,2.60
2022-11-12T19:21:33.390Z,4.00
2022-11-12T19:24:22.937Z,1.63
2022-11-12T19:27:14.181Z,1.50
2022-11-12T19:30:04.320Z,2.63
2022-11-12T19:32:56.148Z,2.50
2022-11-12T19:35:45.489Z,3.27
2022-11-12T19:38:34.842Z,1.63
2022-11-12T19:41:23.349Z,2.57
2022-11-12T19:44:15.445Z,3.53
2022-11-12T19:47:04.194Z,3.10
2022-11-12T19:49:53.250Z,2.27
2022-11-12T19:52:41.889Z,2.70
2022-11-12T19:55:34.534Z,4.73
2022-11-12T19:58:26.493Z,5.17
2022-11-12T20:01:20.942Z,2.50
2022-11-12T20:04:09.947Z,3.83
2022-11-12T20:06:58.580Z,2.57
2022-11-12T20:09:48.546Z,4.20
2022-11-12T20:12:39.015Z,2.17
2022-11-12T20:15:28.000Z,3.13
2022-11-12T20:18:21.142Z,2.90
2022-11-12T20:21:11.420Z,2.07
2022-11-12T20:24:00.553Z,0.73
2022-11-12T20:26:49.283Z,2.20
2022-11-12T20:29:38.708Z,2.60
2022-11-12T20:32:27.524Z,3.50
2022-11-12T20:35:22.206Z,2.03
2022-11-12T20:38:10.872Z,2.17
2022-11-12T20:41:05.989Z,4.50
2022-11-12T20:43:57.583Z,4.63
2022-11-12T20:46:46.106Z,1.53
2022-11-12T20:49:35.289Z,1.27
2022-11-12T20:52:26.282Z,3.10
2022-11-12T20:55:15.476Z,3.63
2022-11-12T20:58:04.249Z,1.70
2022-11-12T21:00:53.542Z,0.90
2022-11-12T21:03:43.566Z,1.93
2022-11-12T21:06:32.642Z,1.70
2022-11-12T21:09:27.218Z,1.87
2022-11-12T21:12:16.181Z,2.80
2022-11-12T21:15:05.791Z,5.20
2022-11-12T21:17:55.151Z,5.17
2022-11-12T21:20:44.970Z,3.00
2022-11-12T21:23:34.120Z,1.30
2022-11-12T21:26:26.705Z,1.00
2022-11-12T21:29:18.784Z,1.80
2022-11-12T21:32:08.080Z,7.63
2022-11-12T21:35:00.340Z,3.63
2022-11-12T21:37:48.693Z,2.90
2022-11-12T21:40:39.892Z,2.03
2022-11-12T21:43:31.342Z,1.80
2022-11-12T21:46:22.241Z,2.00
2022-11-12T21:49:11.128Z,1.97
2022-11-12T21:51:59.741Z,3.63
2022-11-12T21:54:50.108Z,2.60
2022-11-12T21:57:39.688Z,1.70
2022-11-12T22:00:42.524Z,2.30
2022-11-12T22:03:33.621Z,2.60
2022-11-12T22:06:25.462Z,2.80
2022-11-12T22:09:16.283Z,4.00
2022-11-12T22:12:05.342Z,4.10
2022-11-12T22:14:59.830Z,3.70
2022-11-12T22:17:51.007Z,2.30
2022-11-12T22:20:39.712Z,1.87
2022-11-12T22:23:28.501Z,2.27
2022-11-12T22:26:21.148Z,1.20
2022-11-12T22:29:09.546Z,1.27
2022-11-12T22:31:57.692Z,1.53
2022-11-12T22:34:52.811Z,1.40
2022-11-12T22:37:41.446Z,1.47
2022-11-12T22:40:30.622Z,1.10
2022-11-12T22:43:19.254Z,1.50
2022-11-12T22:46:12.456Z,1.37
2022-11-12T22:49:01.076Z,1.30
2022-11-12T22:51:52.231Z,1.23
2022-11-12T22:54:41.945Z,1.27
2022-11-12T22:57:30.186Z,1.23
2022-11-12T23:00:22.131Z,1.60
2022-11-12T23:03:10.737Z,1.10
2022-11-12T23:06:04.337Z,1.00
2022-11-12T23:08:55.896Z,1.07
2022-11-12T23:11:45.875Z,0.87
2022-11-12T23:14:35.076Z,0.70
2022-11-12T23:17:23.710Z,0.70
2022-11-12T23:20:13.130Z,0.87
2022-11-12T23:23:01.606Z,0.90
2022-11-12T23:25:54.549Z,0.67
2022-11-12T23:28:43.883Z,0.60
2022-11-12T23:31:34.592Z,1.17
2022-11-12T23:34:23.329Z,0.90
2022-11-12T23:37:13.987Z,0.80
2022-11-12T23:40:03.424Z,0.93
2022-11-12T23:42:56.455Z,1.10
2022-11-12T23:45:45.865Z,1.00
2022-11-12T23:48:34.460Z,1.20
2022-11-12T23:51:27.111Z,0.60
2022-11-12T23:54:15.708Z,0.53
2022-11-12T23:57:14.188Z,0.60
